sensor_id;sensor_type;location;lat;lon;timestamp;P1;durP1;ratioP1;P2;durP2;ratioP2
64037;SDS011;54641;50.168;8.492;2022-09-16T00:01:30;5.70;;;1.80;;
64037;SDS011;54641;50.168;8.492;2022-09-16T00:04:01;4.00;;;1.60;;
64037;SDS011;54641;50.168;8.492;2022-09-16T00:06:31;5.50;;;1.90;;
64037;SDS011;54641;50.168;8.492;2022-09-16T00:09:02;3.70;;;1.80;;
64037;SDS011;54641;50.168;8.492;2022-09-16T00:11:32;5.50;;;1.50;;
64037;SDS011;54641;50.168;8.492;2022-09-16T00:14:03;4.20;;;1.70;;
64037;SDS011;54641;50.168;8.492;2022-09-16T00:16:34;6.40;;;2.50;;
64037;SDS011;54641;50.168;8.492;2022-09-16T00:19:04;5.00;;;1.70;;
64037;SDS011;54641;50.168;8.492;2022-09-16T00:21:36;4.20;;;1.50;;
64037;SDS011;54641;50.168;8.492;2022-09-16T00:24:08;3.90;;;1.70;;
64037;SDS011;54641;50.168;8.492;2022-09-16T00:26:42;2.80;;;1.70;;
64037;SDS011;54641;50.168;8.492;2022-09-16T00:29:12;6.30;;;1.80;;
64037;SDS011;54641;50.168;8.492;2022-09-16T00:31:43;3.70;;;1.70;;
64037;SDS011;54641;50.168;8.492;2022-09-16T00:34:13;7.70;;;1.80;;
64037;SDS011;54641;50.168;8.492;2022-09-16T00:36:44;3.30;;;1.50;;
64037;SDS011;54641;50.168;8.492;2022-09-16T00:39:14;3.40;;;1.60;;
64037;SDS011;54641;50.168;8.492;2022-09-16T00:41:44;7.10;;;1.90;;
64037;SDS011;54641;50.168;8.492;2022-09-16T00:47:23;5.10;;;1.80;;
64037;SDS011;54641;50.168;8.492;2022-09-16T00:49:58;5.40;;;1.60;;
64037;SDS011;54641;50.168;8.492;2022-09-16T00:52:32;3.20;;;1.40;;
64037;SDS011;54641;50.168;8.492;2022-09-16T00:55:04;4.40;;;1.70;;
64037;SDS011;54641;50.168;8.492;2022-09-16T00:57:36;4.30;;;2.30;;
64037;SDS011;54641;50.168;8.492;2022-09-16T01:00:08;5.50;;;1.80;;
64037;SDS011;54641;50.168;8.492;2022-09-16T01:05:10;2.50;;;1.30;;
64037;SDS011;54641;50.168;8.492;2022-09-16T01:10:12;5.50;;;1.60;;
64037;SDS011;54641;50.168;8.492;2022-09-16T01:12:46;4.30;;;1.20;;
64037;SDS011;54641;50.168;8.492;2022-09-16T01:15:18;2.20;;;1.20;;
64037;SDS011;54641;50.168;8.492;2022-09-16T01:17:55;6.50;;;1.40;;
64037;SDS011;54641;50.168;8.492;2022-09-16T01:20:44;3.20;;;1.20;;
64037;SDS011;54641;50.168;8.492;2022-09-16T01:26:32;3.00;;;1.30;;
64037;SDS011;54641;50.168;8.492;2022-09-16T01:32:30;6.80;;;1.40;;
64037;SDS011;54641;50.168;8.492;2022-09-16T01:35:04;4.40;;;1.10;;
64037;SDS011;54641;50.168;8.492;2022-09-16T01:37:40;5.70;;;1.60;;
64037;SDS011;54641;50.168;8.492;2022-09-16T01:40:18;4.30;;;1.50;;
64037;SDS011;54641;50.168;8.492;2022-09-16T01:42:54;3.10;;;1.50;;
64037;SDS011;54641;50.168;8.492;2022-09-16T01:45:29;4.20;;;1.60;;
64037;SDS011;54641;50.168;8.492;2022-09-16T01:48:06;2.90;;;1.10;;
64037;SDS011;54641;50.168;8.492;2022-09-16T01:50:40;6.20;;;1.50;;
64037;SDS011;54641;50.168;8.492;2022-09-16T01:53:15;2.30;;;1.10;;
64037;SDS011;54641;50.168;8.492;2022-09-16T01:55:50;3.90;;;1.30;;
64037;SDS011;54641;50.168;8.492;2022-09-16T01:58:23;3.10;;;1.00;;
64037;SDS011;54641;50.168;8.492;2022-09-16T02:00:57;3.10;;;1.10;;
64037;SDS011;54641;50.168;8.492;2022-09-16T02:03:31;2.50;;;1.50;;
64037;SDS011;54641;50.168;8.492;2022-09-16T02:06:04;2.40;;;1.10;;
64037;SDS011;54641;50.168;8.492;2022-09-16T02:08:43;4.10;;;1.10;;
64037;SDS011;54641;50.168;8.492;2022-09-16T02:11:17;4.40;;;1.30;;
64037;SDS011;54641;50.168;8.492;2022-09-16T02:13:48;4.90;;;1.30;;
64037;SDS011;54641;50.168;8.492;2022-09-16T02:16:22;3.60;;;2.30;;
64037;SDS011;54641;50.168;8.492;2022-09-16T02:18:59;5.20;;;1.10;;
64037;SDS011;54641;50.168;8.492;2022-09-16T02:21:34;3.60;;;1.30;;
64037;SDS011;54641;50.168;8.492;2022-09-16T02:24:12;1.90;;;1.20;;
64037;SDS011;54641;50.168;8.492;2022-09-16T02:29:15;3.90;;;1.00;;
64037;SDS011;54641;50.168;8.492;2022-09-16T02:34:22;5.40;;;1.40;;
64037;SDS011;54641;50.168;8.492;2022-09-16T02:36:57;3.30;;;1.40;;
64037;SDS011;54641;50.168;8.492;2022-09-16T02:39:33;4.30;;;1.40;;
64037;SDS011;54641;50.168;8.492;2022-09-16T02:42:06;5.50;;;1.90;;
64037;SDS011;54641;50.168;8.492;2022-09-16T02:44:37;5.70;;;1.20;;
64037;SDS011;54641;50.168;8.492;2022-09-16T02:47:08;3.00;;;1.20;;
64037;SDS011;54641;50.168;8.492;2022-09-16T02:49:41;5.60;;;1.50;;
64037;SDS011;54641;50.168;8.492;2022-09-16T02:52:17;6.50;;;1.90;;
64037;SDS011;54641;50.168;8.492;2022-09-16T02:54:53;7.70;;;1.70;;
64037;SDS011;54641;50.168;8.492;2022-09-16T02:57:29;5.30;;;1.30;;
64037;SDS011;54641;50.168;8.492;2022-09-16T03:00:00;4.10;;;1.60;;
64037;SDS011;54641;50.168;8.492;2022-09-16T03:02:32;4.40;;;1.80;;
64037;SDS011;54641;50.168;8.492;2022-09-16T03:05:03;13.90;;;2.40;;
64037;SDS011;54641;50.168;8.492;2022-09-16T03:07:34;4.50;;;1.40;;
64037;SDS011;54641;50.168;8.492;2022-09-16T03:10:05;3.40;;;1.20;;
64037;SDS011;54641;50.168;8.492;2022-09-16T03:12:40;5.90;;;1.40;;
64037;SDS011;54641;50.168;8.492;2022-09-16T03:18:11;5.40;;;1.30;;
64037;SDS011;54641;50.168;8.492;2022-09-16T03:20:49;6.30;;;1.20;;
64037;SDS011;54641;50.168;8.492;2022-09-16T03:23:25;6.60;;;1.30;;
64037;SDS011;54641;50.168;8.492;2022-09-16T03:26:01;2.60;;;1.20;;
64037;SDS011;54641;50.168;8.492;2022-09-16T03:28:36;5.40;;;1.80;;
64037;SDS011;54641;50.168;8.492;2022-09-16T03:31:12;4.10;;;1.50;;
64037;SDS011;54641;50.168;8.492;2022-09-16T03:33:46;6.90;;;1.90;;
64037;SDS011;54641;50.168;8.492;2022-09-16T03:36:22;4.80;;;1.30;;
64037;SDS011;54641;50.168;8.492;2022-09-16T03:41:22;4.60;;;1.30;;
64037;SDS011;54641;50.168;8.492;2022-09-16T03:43:54;7.00;;;1.50;;
64037;SDS011;54641;50.168;8.492;2022-09-16T03:46:30;6.80;;;1.60;;
64037;SDS011;54641;50.168;8.492;2022-09-16T03:49:03;3.90;;;1.50;;
64037;SDS011;54641;50.168;8.492;2022-09-16T03:51:34;6.50;;;1.90;;
64037;SDS011;54641;50.168;8.492;2022-09-16T03:54:04;8.30;;;2.60;;
64037;SDS011;54641;50.168;8.492;2022-09-16T03:56:34;9.10;;;1.40;;
64037;SDS011;54641;50.168;8.492;2022-09-16T03:59:05;4.00;;;1.40;;
64037;SDS011;54641;50.168;8.492;2022-09-16T04:01:35;5.60;;;1.80;;
64037;SDS011;54641;50.168;8.492;2022-09-16T04:04:06;3.40;;;1.60;;
64037;SDS011;54641;50.168;8.492;2022-09-16T04:06:36;4.90;;;1.50;;
64037;SDS011;54641;50.168;8.492;2022-09-16T04:09:06;6.10;;;1.70;;
64037;SDS011;54641;50.168;8.492;2022-09-16T04:11:39;3.70;;;1.60;;
64037;SDS011;54641;50.168;8.492;2022-09-16T04:14:11;4.00;;;1.30;;
64037;SDS011;54641;50.168;8.492;2022-09-16T04:16:43;5.70;;;1.60;;
64037;SDS011;54641;50.168;8.492;2022-09-16T04:19:15;4.50;;;1.70;;
64037;SDS011;54641;50.168;8.492;2022-09-16T04:21:46;4.20;;;1.40;;
64037;SDS011;54641;50.168;8.492;2022-09-16T04:24:18;4.70;;;1.30;;
64037;SDS011;54641;50.168;8.492;2022-09-16T04:26:50;3.50;;;1.40;;
64037;SDS011;54641;50.168;8.492;2022-09-16T04:29:21;4.40;;;1.50;;
64037;SDS011;54641;50.168;8.492;2022-09-16T04:31:53;4.00;;;1.60;;
64037;SDS011;54641;50.168;8.492;2022-09-16T04:34:25;4.10;;;1.50;;
64037;SDS011;54641;50.168;8.492;2022-09-16T04:36:57;3.80;;;1.60;;
64037;SDS011;54641;50.168;8.492;2022-09-16T04:39:29;6.70;;;1.60;;
64037;SDS011;54641;50.168;8.492;2022-09-16T04:42:01;2.70;;;2.00;;
64037;SDS011;54641;50.168;8.492;2022-09-16T04:44:35;6.80;;;1.40;;
64037;SDS011;54641;50.168;8.492;2022-09-16T04:47:07;5.20;;;1.30;;
64037;SDS011;54641;50.168;8.492;2022-09-16T04:49:39;3.50;;;1.60;;
64037;SDS011;54641;50.168;8.492;2022-09-16T04:52:11;9.40;;;1.70;;
64037;SDS011;54641;50.168;8.492;2022-09-16T04:54:43;3.60;;;1.40;;
64037;SDS011;54641;50.168;8.492;2022-09-16T04:57:15;4.20;;;1.40;;
64037;SDS011;54641;50.168;8.492;2022-09-16T04:59:47;4.10;;;1.50;;
64037;SDS011;54641;50.168;8.492;2022-09-16T05:02:19;6.00;;;2.00;;
64037;SDS011;54641;50.168;8.492;2022-09-16T05:04:51;7.30;;;2.50;;
64037;SDS011;54641;50.168;8.492;2022-09-16T05:07:23;3.60;;;2.00;;
64037;SDS011;54641;50.168;8.492;2022-09-16T05:09:54;6.90;;;2.00;;
64037;SDS011;54641;50.168;8.492;2022-09-16T05:19:33;11.50;;;2.60;;
64037;SDS011;54641;50.168;8.492;2022-09-16T05:22:04;4.70;;;2.30;;
64037;SDS011;54641;50.168;8.492;2022-09-16T05:24:34;6.30;;;3.00;;
64037;SDS011;54641;50.168;8.492;2022-09-16T05:27:08;5.40;;;2.80;;
64037;SDS011;54641;50.168;8.492;2022-09-16T05:29:38;6.60;;;3.60;;
64037;SDS011;54641;50.168;8.492;2022-09-16T05:32:08;7.30;;;2.60;;
64037;SDS011;54641;50.168;8.492;2022-09-16T05:34:39;8.20;;;2.50;;
64037;SDS011;54641;50.168;8.492;2022-09-16T05:37:09;6.30;;;2.20;;
64037;SDS011;54641;50.168;8.492;2022-09-16T05:39:40;8.30;;;2.40;;
64037;SDS011;54641;50.168;8.492;2022-09-16T05:42:11;6.40;;;2.30;;
64037;SDS011;54641;50.168;8.492;2022-09-16T05:44:41;8.90;;;2.40;;
64037;SDS011;54641;50.168;8.492;2022-09-16T05:47:11;4.80;;;2.40;;
64037;SDS011;54641;50.168;8.492;2022-09-16T05:49:42;4.80;;;3.00;;
64037;SDS011;54641;50.168;8.492;2022-09-16T05:52:12;7.50;;;3.00;;
64037;SDS011;54641;50.168;8.492;2022-09-16T05:54:43;5.80;;;2.00;;
64037;SDS011;54641;50.168;8.492;2022-09-16T05:57:13;7.90;;;3.30;;
64037;SDS011;54641;50.168;8.492;2022-09-16T05:59:44;8.60;;;2.50;;
64037;SDS011;54641;50.168;8.492;2022-09-16T06:02:14;4.30;;;2.20;;
64037;SDS011;54641;50.168;8.492;2022-09-16T06:04:45;8.50;;;4.40;;
64037;SDS011;54641;50.168;8.492;2022-09-16T06:07:15;4.70;;;2.20;;
64037;SDS011;54641;50.168;8.492;2022-09-16T06:09:46;6.00;;;2.20;;
64037;SDS011;54641;50.168;8.492;2022-09-16T06:12:16;7.40;;;2.20;;
64037;SDS011;54641;50.168;8.492;2022-09-16T06:14:47;6.10;;;1.90;;
64037;SDS011;54641;50.168;8.492;2022-09-16T06:17:17;5.30;;;2.30;;
64037;SDS011;54641;50.168;8.492;2022-09-16T06:19:47;6.90;;;2.30;;
64037;SDS011;54641;50.168;8.492;2022-09-16T06:22:18;5.10;;;2.10;;
64037;SDS011;54641;50.168;8.492;2022-09-16T06:24:48;4.30;;;2.00;;
64037;SDS011;54641;50.168;8.492;2022-09-16T06:27:20;4.30;;;2.00;;
64037;SDS011;54641;50.168;8.492;2022-09-16T06:29:50;2.70;;;1.70;;
64037;SDS011;54641;50.168;8.492;2022-09-16T06:32:20;5.10;;;1.90;;
64037;SDS011;54641;50.168;8.492;2022-09-16T06:34:51;4.40;;;1.80;;
64037;SDS011;54641;50.168;8.492;2022-09-16T06:37:21;6.70;;;2.80;;
64037;SDS011;54641;50.168;8.492;2022-09-16T06:39:52;2.90;;;1.80;;
64037;SDS011;54641;50.168;8.492;2022-09-16T06:42:23;4.50;;;1.80;;
64037;SDS011;54641;50.168;8.492;2022-09-16T06:44:57;7.00;;;2.60;;
64037;SDS011;54641;50.168;8.492;2022-09-16T06:47:29;5.50;;;1.80;;
64037;SDS011;54641;50.168;8.492;2022-09-16T06:50:00;2.50;;;1.50;;
64037;SDS011;54641;50.168;8.492;2022-09-16T06:52:31;6.10;;;1.80;;
64037;SDS011;54641;50.168;8.492;2022-09-16T06:55:01;4.90;;;1.90;;
64037;SDS011;54641;50.168;8.492;2022-09-16T06:57:32;6.40;;;1.90;;
64037;SDS011;54641;50.168;8.492;2022-09-16T07:00:03;4.80;;;1.40;;
64037;SDS011;54641;50.168;8.492;2022-09-16T07:02:35;3.60;;;1.80;;
64037;SDS011;54641;50.168;8.492;2022-09-16T07:05:06;5.80;;;1.50;;
64037;SDS011;54641;50.168;8.492;2022-09-16T07:07:38;7.10;;;1.70;;
64037;SDS011;54641;50.168;8.492;2022-09-16T07:10:09;5.80;;;2.10;;
64037;SDS011;54641;50.168;8.492;2022-09-16T07:12:39;5.20;;;1.70;;
64037;SDS011;54641;50.168;8.492;2022-09-16T07:15:10;3.70;;;1.30;;
64037;SDS011;54641;50.168;8.492;2022-09-16T07:17:41;5.00;;;1.40;;
64037;SDS011;54641;50.168;8.492;2022-09-16T07:20:11;8.30;;;1.60;;
64037;SDS011;54641;50.168;8.492;2022-09-16T07:22:41;3.80;;;1.40;;
64037;SDS011;54641;50.168;8.492;2022-09-16T07:25:12;5.70;;;1.70;;
64037;SDS011;54641;50.168;8.492;2022-09-16T07:27:42;3.70;;;1.50;;
64037;SDS011;54641;50.168;8.492;2022-09-16T07:30:13;4.60;;;1.40;;
64037;SDS011;54641;50.168;8.492;2022-09-16T07:32:43;5.60;;;1.60;;
64037;SDS011;54641;50.168;8.492;2022-09-16T07:35:14;4.40;;;1.40;;
64037;SDS011;54641;50.168;8.492;2022-09-16T07:37:44;3.50;;;1.20;;
64037;SDS011;54641;50.168;8.492;2022-09-16T07:40:15;5.10;;;1.60;;
64037;SDS011;54641;50.168;8.492;2022-09-16T07:42:45;3.60;;;1.40;;
64037;SDS011;54641;50.168;8.492;2022-09-16T07:45:16;4.10;;;1.20;;
64037;SDS011;54641;50.168;8.492;2022-09-16T07:47:48;6.90;;;1.80;;
64037;SDS011;54641;50.168;8.492;2022-09-16T07:52:52;4.00;;;1.50;;
64037;SDS011;54641;50.168;8.492;2022-09-16T07:55:22;5.70;;;1.50;;
64037;SDS011;54641;50.168;8.492;2022-09-16T07:57:53;5.40;;;1.70;;
64037;SDS011;54641;50.168;8.492;2022-09-16T08:00:24;4.00;;;1.30;;
64037;SDS011;54641;50.168;8.492;2022-09-16T08:02:56;4.00;;;1.50;;
64037;SDS011;54641;50.168;8.492;2022-09-16T08:05:27;6.00;;;1.10;;
64037;SDS011;54641;50.168;8.492;2022-09-16T08:07:57;7.00;;;1.10;;
64037;SDS011;54641;50.168;8.492;2022-09-16T08:10:28;4.10;;;1.00;;
64037;SDS011;54641;50.168;8.492;2022-09-16T08:12:59;4.90;;;1.30;;
64037;SDS011;54641;50.168;8.492;2022-09-16T08:15:30;5.40;;;1.00;;
64037;SDS011;54641;50.168;8.492;2022-09-16T08:18:01;5.60;;;1.30;;
64037;SDS011;54641;50.168;8.492;2022-09-16T08:20:31;5.70;;;1.60;;
64037;SDS011;54641;50.168;8.492;2022-09-16T08:23:04;5.40;;;1.10;;
64037;SDS011;54641;50.168;8.492;2022-09-16T08:25:34;6.20;;;1.00;;
64037;SDS011;54641;50.168;8.492;2022-09-16T08:28:05;6.70;;;1.10;;
64037;SDS011;54641;50.168;8.492;2022-09-16T08:30:35;6.10;;;1.30;;
64037;SDS011;54641;50.168;8.492;2022-09-16T08:33:06;6.10;;;1.10;;
64037;SDS011;54641;50.168;8.492;2022-09-16T08:35:36;6.90;;;1.70;;
64037;SDS011;54641;50.168;8.492;2022-09-16T08:38:06;6.50;;;1.20;;
64037;SDS011;54641;50.168;8.492;2022-09-16T08:40:37;4.80;;;1.30;;
64037;SDS011;54641;50.168;8.492;2022-09-16T08:43:12;4.50;;;1.20;;
64037;SDS011;54641;50.168;8.492;2022-09-16T08:45:48;5.70;;;1.50;;
64037;SDS011;54641;50.168;8.492;2022-09-16T08:48:25;2.80;;;1.00;;
64037;SDS011;54641;50.168;8.492;2022-09-16T08:50:59;4.20;;;1.10;;
64037;SDS011;54641;50.168;8.492;2022-09-16T08:53:33;3.60;;;1.10;;
64037;SDS011;54641;50.168;8.492;2022-09-16T08:56:06;4.50;;;1.20;;
64037;SDS011;54641;50.168;8.492;2022-09-16T08:58:42;3.80;;;1.10;;
64037;SDS011;54641;50.168;8.492;2022-09-16T09:01:17;3.80;;;0.90;;
64037;SDS011;54641;50.168;8.492;2022-09-16T09:03:51;5.10;;;1.10;;
64037;SDS011;54641;50.168;8.492;2022-09-16T09:06:25;5.00;;;1.30;;
64037;SDS011;54641;50.168;8.492;2022-09-16T09:09:03;3.60;;;0.80;;
64037;SDS011;54641;50.168;8.492;2022-09-16T09:11:42;3.60;;;1.00;;
64037;SDS011;54641;50.168;8.492;2022-09-16T09:14:19;3.20;;;1.00;;
64037;SDS011;54641;50.168;8.492;2022-09-16T09:16:58;4.40;;;1.40;;
64037;SDS011;54641;50.168;8.492;2022-09-16T09:19:39;4.40;;;1.10;;
64037;SDS011;54641;50.168;8.492;2022-09-16T09:22:20;4.70;;;1.00;;
64037;SDS011;54641;50.168;8.492;2022-09-16T09:25:03;2.70;;;0.80;;
64037;SDS011;54641;50.168;8.492;2022-09-16T09:27:44;7.30;;;1.40;;
64037;SDS011;54641;50.168;8.492;2022-09-16T09:30:20;3.30;;;1.10;;
64037;SDS011;54641;50.168;8.492;2022-09-16T09:32:57;4.30;;;1.10;;
64037;SDS011;54641;50.168;8.492;2022-09-16T09:36:01;4.80;;;1.10;;
64037;SDS011;54641;50.168;8.492;2022-09-16T09:38:48;2.30;;;0.80;;
64037;SDS011;54641;50.168;8.492;2022-09-16T09:41:26;3.40;;;1.40;;
64037;SDS011;54641;50.168;8.492;2022-09-16T09:44:00;3.90;;;1.00;;
64037;SDS011;54641;50.168;8.492;2022-09-16T09:46:47;6.20;;;1.00;;
64037;SDS011;54641;50.168;8.492;2022-09-16T09:49:25;6.30;;;0.80;;
64037;SDS011;54641;50.168;8.492;2022-09-16T09:52:00;3.50;;;1.70;;
64037;SDS011;54641;50.168;8.492;2022-09-16T09:54:34;4.90;;;1.20;;
64037;SDS011;54641;50.168;8.492;2022-09-16T09:57:11;3.10;;;1.00;;
64037;SDS011;54641;50.168;8.492;2022-09-16T09:59:46;3.50;;;1.10;;
64037;SDS011;54641;50.168;8.492;2022-09-16T10:04:48;1.90;;;0.70;;
64037;SDS011;54641;50.168;8.492;2022-09-16T10:07:19;3.40;;;0.80;;
64037;SDS011;54641;50.168;8.492;2022-09-16T10:09:52;1.60;;;0.80;;
64037;SDS011;54641;50.168;8.492;2022-09-16T10:12:28;4.70;;;1.30;;
64037;SDS011;54641;50.168;8.492;2022-09-16T10:15:00;2.40;;;0.80;;
64037;SDS011;54641;50.168;8.492;2022-09-16T10:17:31;2.70;;;1.10;;
64037;SDS011;54641;50.168;8.492;2022-09-16T10:20:03;3.20;;;1.00;;
64037;SDS011;54641;50.168;8.492;2022-09-16T10:22:54;4.20;;;0.90;;
64037;SDS011;54641;50.168;8.492;2022-09-16T10:25:28;4.80;;;0.90;;
64037;SDS011;54641;50.168;8.492;2022-09-16T10:28:00;3.00;;;1.00;;
64037;SDS011;54641;50.168;8.492;2022-09-16T10:30:41;3.00;;;0.90;;
64037;SDS011;54641;50.168;8.492;2022-09-16T10:33:13;2.30;;;1.00;;
64037;SDS011;54641;50.168;8.492;2022-09-16T10:35:51;2.60;;;0.80;;
64037;SDS011;54641;50.168;8.492;2022-09-16T10:38:26;2.80;;;1.40;;
64037;SDS011;54641;50.168;8.492;2022-09-16T10:41:05;3.30;;;0.90;;
64037;SDS011;54641;50.168;8.492;2022-09-16T10:43:45;4.50;;;1.20;;
64037;SDS011;54641;50.168;8.492;2022-09-16T10:46:17;3.50;;;1.00;;
64037;SDS011;54641;50.168;8.492;2022-09-16T10:48:49;2.40;;;1.30;;
64037;SDS011;54641;50.168;8.492;2022-09-16T10:51:22;1.50;;;1.00;;
64037;SDS011;54641;50.168;8.492;2022-09-16T10:53:54;3.00;;;0.90;;
64037;SDS011;54641;50.168;8.492;2022-09-16T10:56:26;2.00;;;1.20;;
64037;SDS011;54641;50.168;8.492;2022-09-16T10:59:04;3.40;;;1.30;;
64037;SDS011;54641;50.168;8.492;2022-09-16T11:01:41;4.10;;;1.80;;
64037;SDS011;54641;50.168;8.492;2022-09-16T11:04:23;4.90;;;1.40;;
64037;SDS011;54641;50.168;8.492;2022-09-16T11:07:02;2.70;;;1.10;;
64037;SDS011;54641;50.168;8.492;2022-09-16T11:09:40;3.90;;;1.10;;
64037;SDS011;54641;50.168;8.492;2022-09-16T11:12:22;3.50;;;1.20;;
64037;SDS011;54641;50.168;8.492;2022-09-16T11:15:01;5.50;;;1.20;;
64037;SDS011;54641;50.168;8.492;2022-09-16T11:17:42;3.20;;;1.10;;
64037;SDS011;54641;50.168;8.492;2022-09-16T11:20:24;2.10;;;1.20;;
64037;SDS011;54641;50.168;8.492;2022-09-16T11:23:04;4.10;;;1.30;;
64037;SDS011;54641;50.168;8.492;2022-09-16T11:25:39;1.80;;;0.80;;
64037;SDS011;54641;50.168;8.492;2022-09-16T11:28:20;2.80;;;0.80;;
64037;SDS011;54641;50.168;8.492;2022-09-16T11:31:02;2.40;;;1.00;;
64037;SDS011;54641;50.168;8.492;2022-09-16T11:33:38;2.00;;;0.80;;
64037;SDS011;54641;50.168;8.492;2022-09-16T11:36:22;1.70;;;1.00;;
64037;SDS011;54641;50.168;8.492;2022-09-16T11:39:05;1.50;;;1.10;;
64037;SDS011;54641;50.168;8.492;2022-09-16T11:41:44;2.80;;;1.10;;
64037;SDS011;54641;50.168;8.492;2022-09-16T11:44:21;2.10;;;1.10;;
64037;SDS011;54641;50.168;8.492;2022-09-16T11:47:04;3.00;;;1.40;;
64037;SDS011;54641;50.168;8.492;2022-09-16T11:49:45;3.10;;;1.30;;
64037;SDS011;54641;50.168;8.492;2022-09-16T11:52:30;1.60;;;1.00;;
64037;SDS011;54641;50.168;8.492;2022-09-16T11:55:14;3.00;;;1.50;;
64037;SDS011;54641;50.168;8.492;2022-09-16T11:57:52;3.10;;;1.70;;
64037;SDS011;54641;50.168;8.492;2022-09-16T12:00:24;2.70;;;1.60;;
64037;SDS011;54641;50.168;8.492;2022-09-16T12:02:56;2.80;;;1.60;;
64037;SDS011;54641;50.168;8.492;2022-09-16T12:05:29;2.40;;;1.50;;
64037;SDS011;54641;50.168;8.492;2022-09-16T12:08:05;3.30;;;1.10;;
64037;SDS011;54641;50.168;8.492;2022-09-16T12:10:42;1.30;;;0.90;;
64037;SDS011;54641;50.168;8.492;2022-09-16T12:13:16;4.30;;;1.60;;
64037;SDS011;54641;50.168;8.492;2022-09-16T12:15:49;4.10;;;1.70;;
64037;SDS011;54641;50.168;8.492;2022-09-16T12:18:23;2.30;;;1.50;;
64037;SDS011;54641;50.168;8.492;2022-09-16T12:21:02;3.80;;;1.70;;
64037;SDS011;54641;50.168;8.492;2022-09-16T12:23:37;2.50;;;1.50;;
64037;SDS011;54641;50.168;8.492;2022-09-16T12:26:11;1.70;;;1.10;;
64037;SDS011;54641;50.168;8.492;2022-09-16T12:28:45;2.30;;;1.50;;
64037;SDS011;54641;50.168;8.492;2022-09-16T12:31:20;3.00;;;1.20;;
64037;SDS011;54641;50.168;8.492;2022-09-16T12:33:55;2.00;;;1.10;;
64037;SDS011;54641;50.168;8.492;2022-09-16T12:36:28;2.10;;;1.00;;
64037;SDS011;54641;50.168;8.492;2022-09-16T12:39:00;3.90;;;1.20;;
64037;SDS011;54641;50.168;8.492;2022-09-16T12:41:36;2.20;;;1.00;;
64037;SDS011;54641;50.168;8.492;2022-09-16T12:44:25;3.50;;;1.10;;
64037;SDS011;54641;50.168;8.492;2022-09-16T12:47:20;4.80;;;1.10;;
64037;SDS011;54641;50.168;8.492;2022-09-16T12:50:08;3.40;;;1.20;;
64037;SDS011;54641;50.168;8.492;2022-09-16T12:56:01;2.50;;;1.10;;
64037;SDS011;54641;50.168;8.492;2022-09-16T12:58:46;1.50;;;0.80;;
64037;SDS011;54641;50.168;8.492;2022-09-16T13:01:34;2.40;;;1.20;;
64037;SDS011;54641;50.168;8.492;2022-09-16T13:04:09;2.60;;;0.90;;
64037;SDS011;54641;50.168;8.492;2022-09-16T13:06:45;2.30;;;1.00;;
64037;SDS011;54641;50.168;8.492;2022-09-16T13:09:20;1.90;;;0.90;;
64037;SDS011;54641;50.168;8.492;2022-09-16T13:11:55;3.70;;;1.00;;
64037;SDS011;54641;50.168;8.492;2022-09-16T13:14:47;1.60;;;0.90;;
64037;SDS011;54641;50.168;8.492;2022-09-16T13:17:27;2.60;;;0.80;;
64037;SDS011;54641;50.168;8.492;2022-09-16T13:20:01;2.80;;;0.90;;
64037;SDS011;54641;50.168;8.492;2022-09-16T13:22:36;2.10;;;1.00;;
64037;SDS011;54641;50.168;8.492;2022-09-16T13:25:19;2.90;;;1.50;;
64037;SDS011;54641;50.168;8.492;2022-09-16T13:27:57;2.20;;;0.80;;
64037;SDS011;54641;50.168;8.492;2022-09-16T13:30:33;2.40;;;0.90;;
64037;SDS011;54641;50.168;8.492;2022-09-16T13:33:24;2.40;;;1.00;;
64037;SDS011;54641;50.168;8.492;2022-09-16T13:36:13;2.60;;;1.00;;
64037;SDS011;54641;50.168;8.492;2022-09-16T13:38:46;2.50;;;0.90;;
64037;SDS011;54641;50.168;8.492;2022-09-16T13:41:28;1.80;;;0.90;;
64037;SDS011;54641;50.168;8.492;2022-09-16T13:44:01;3.60;;;0.90;;
64037;SDS011;54641;50.168;8.492;2022-09-16T13:46:53;1.50;;;0.90;;
64037;SDS011;54641;50.168;8.492;2022-09-16T13:49:24;3.50;;;1.10;;
64037;SDS011;54641;50.168;8.492;2022-09-16T13:51:54;1.70;;;0.90;;
64037;SDS011;54641;50.168;8.492;2022-09-16T13:54:26;1.50;;;0.80;;
64037;SDS011;54641;50.168;8.492;2022-09-16T13:57:13;2.50;;;0.90;;
64037;SDS011;54641;50.168;8.492;2022-09-16T13:59:56;3.40;;;1.10;;
64037;SDS011;54641;50.168;8.492;2022-09-16T14:02:35;1.40;;;0.80;;
64037;SDS011;54641;50.168;8.492;2022-09-16T14:05:15;2.30;;;0.70;;
64037;SDS011;54641;50.168;8.492;2022-09-16T14:07:53;1.40;;;0.90;;
64037;SDS011;54641;50.168;8.492;2022-09-16T14:10:28;3.50;;;1.00;;
64037;SDS011;54641;50.168;8.492;2022-09-16T14:13:03;2.80;;;0.80;;
64037;SDS011;54641;50.168;8.492;2022-09-16T14:15:39;1.40;;;0.60;;
64037;SDS011;54641;50.168;8.492;2022-09-16T14:18:12;2.50;;;0.80;;
64037;SDS011;54641;50.168;8.492;2022-09-16T14:20:52;1.60;;;0.80;;
64037;SDS011;54641;50.168;8.492;2022-09-16T14:23:25;3.80;;;0.90;;
64037;SDS011;54641;50.168;8.492;2022-09-16T14:25:56;0.60;;;0.50;;
64037;SDS011;54641;50.168;8.492;2022-09-16T14:28:27;1.60;;;0.50;;
64037;SDS011;54641;50.168;8.492;2022-09-16T14:30:59;2.50;;;0.60;;
64037;SDS011;54641;50.168;8.492;2022-09-16T14:33:31;0.80;;;0.50;;
64037;SDS011;54641;50.168;8.492;2022-09-16T14:36:08;3.50;;;0.70;;
64037;SDS011;54641;50.168;8.492;2022-09-16T14:38:41;1.20;;;0.70;;
64037;SDS011;54641;50.168;8.492;2022-09-16T14:41:16;1.90;;;0.60;;
64037;SDS011;54641;50.168;8.492;2022-09-16T14:43:50;1.20;;;0.70;;
64037;SDS011;54641;50.168;8.492;2022-09-16T14:46:20;2.50;;;0.80;;
64037;SDS011;54641;50.168;8.492;2022-09-16T14:48:51;1.40;;;0.60;;
64037;SDS011;54641;50.168;8.492;2022-09-16T14:51:22;0.70;;;0.60;;
64037;SDS011;54641;50.168;8.492;2022-09-16T14:53:55;4.20;;;0.80;;
64037;SDS011;54641;50.168;8.492;2022-09-16T14:56:42;2.70;;;0.80;;
64037;SDS011;54641;50.168;8.492;2022-09-16T14:59:22;2.00;;;1.00;;
64037;SDS011;54641;50.168;8.492;2022-09-16T15:01:55;2.50;;;0.70;;
64037;SDS011;54641;50.168;8.492;2022-09-16T15:04:29;1.80;;;0.70;;
64037;SDS011;54641;50.168;8.492;2022-09-16T15:07:05;1.30;;;0.60;;
64037;SDS011;54641;50.168;8.492;2022-09-16T15:09:40;1.70;;;0.60;;
64037;SDS011;54641;50.168;8.492;2022-09-16T15:12:18;1.30;;;0.70;;
64037;SDS011;54641;50.168;8.492;2022-09-16T15:14:49;1.50;;;0.60;;
64037;SDS011;54641;50.168;8.492;2022-09-16T15:17:20;1.00;;;0.60;;
64037;SDS011;54641;50.168;8.492;2022-09-16T15:19:54;2.60;;;1.00;;
64037;SDS011;54641;50.168;8.492;2022-09-16T15:22:26;2.00;;;0.80;;
64037;SDS011;54641;50.168;8.492;2022-09-16T15:24:57;2.00;;;0.90;;
64037;SDS011;54641;50.168;8.492;2022-09-16T15:27:28;1.60;;;1.00;;
64037;SDS011;54641;50.168;8.492;2022-09-16T15:29:59;0.90;;;0.70;;
64037;SDS011;54641;50.168;8.492;2022-09-16T15:32:41;2.30;;;0.60;;
64037;SDS011;54641;50.168;8.492;2022-09-16T15:38:10;1.30;;;0.60;;
64037;SDS011;54641;50.168;8.492;2022-09-16T15:40:41;0.80;;;0.50;;
64037;SDS011;54641;50.168;8.492;2022-09-16T15:43:13;3.90;;;0.70;;
64037;SDS011;54641;50.168;8.492;2022-09-16T15:45:55;1.90;;;0.60;;
64037;SDS011;54641;50.168;8.492;2022-09-16T15:48:29;1.70;;;0.50;;
64037;SDS011;54641;50.168;8.492;2022-09-16T15:51:03;1.60;;;0.50;;
64037;SDS011;54641;50.168;8.492;2022-09-16T15:53:38;1.60;;;0.60;;
64037;SDS011;54641;50.168;8.492;2022-09-16T15:56:17;0.80;;;0.50;;
64037;SDS011;54641;50.168;8.492;2022-09-16T15:58:52;1.00;;;0.50;;
64037;SDS011;54641;50.168;8.492;2022-09-16T16:01:34;2.80;;;0.90;;
64037;SDS011;54641;50.168;8.492;2022-09-16T16:04:10;1.70;;;0.70;;
64037;SDS011;54641;50.168;8.492;2022-09-16T16:06:48;0.90;;;0.30;;
64037;SDS011;54641;50.168;8.492;2022-09-16T16:09:35;2.60;;;0.60;;
64037;SDS011;54641;50.168;8.492;2022-09-16T16:12:09;0.90;;;0.40;;
64037;SDS011;54641;50.168;8.492;2022-09-16T16:14:41;0.80;;;0.40;;